createdAt,value
2022-12-24T00:00:43.003Z,99.99
2022-12-24T00:01:42.860Z,99.99
2022-12-24T00:02:42.967Z,99.99
2022-12-24T00:03:42.980Z,99.99
2022-12-24T00:04:42.884Z,99.99
2022-12-24T00:05:42.892Z,99.99
2022-12-24T00:06:42.891Z,99.99
2022-12-24T00:07:42.896Z,99.99
2022-12-24T00:08:42.910Z,99.99
2022-12-24T00:09:42.917Z,99.99
2022-12-24T00:10:42.927Z,99.99
2022-12-24T00:11:42.954Z,99.99
2022-12-24T00:12:42.950Z,99.99
2022-12-24T00:13:42.949Z,99.99
2022-12-24T00:14:42.946Z,99.99
2022-12-24T00:15:42.958Z,99.99
2022-12-24T00:16:42.978Z,99.99
2022-12-24T00:17:42.969Z,99.99
2022-12-24T00:18:46.227Z,99.99
2022-12-24T00:19:42.993Z,99.99
2022-12-24T00:20:43.042Z,99.99
2022-12-24T00:21:43.001Z,99.99
2022-12-24T00:22:43.008Z,99.99
2022-12-24T00:23:43.017Z,99.99
2022-12-24T00:24:43.023Z,99.99
2022-12-24T00:25:43.030Z,99.99
2022-12-24T00:26:43.032Z,99.99
2022-12-24T00:27:43.037Z,99.99
2022-12-24T00:28:43.067Z,99.99
2022-12-24T00:29:43.051Z,99.99
2022-12-24T00:30:43.099Z,99.99
2022-12-24T00:31:43.063Z,95.60
2022-12-24T00:32:43.070Z,92.09
2022-12-24T00:33:43.093Z,91.62
2022-12-24T00:34:43.091Z,94.37
2022-12-24T00:35:43.090Z,99.99
2022-12-24T00:36:43.100Z,99.99
2022-12-24T00:37:43.114Z,99.99
2022-12-24T00:38:43.105Z,99.99
2022-12-24T00:39:43.123Z,99.99
2022-12-24T00:40:43.119Z,99.99
2022-12-24T00:41:43.137Z,99.99
2022-12-24T00:42:43.139Z,99.99
2022-12-24T00:43:43.152Z,99.99
2022-12-24T00:44:43.174Z,99.99
2022-12-24T00:45:43.160Z,99.99
2022-12-24T00:46:43.238Z,99.99
2022-12-24T00:47:43.169Z,99.99
2022-12-24T00:48:43.172Z,99.99
2022-12-24T00:49:43.184Z,99.99
2022-12-24T00:50:43.205Z,99.99
2022-12-24T00:51:43.195Z,99.99
2022-12-24T00:52:43.199Z,99.99
2022-12-24T00:53:43.213Z,99.99
2022-12-24T00:54:43.214Z,99.99
2022-12-24T00:55:43.223Z,99.99
2022-12-24T00:56:43.228Z,99.99
2022-12-24T00:57:43.277Z,99.99
2022-12-24T00:58:43.238Z,99.99
2022-12-24T00:59:43.250Z,99.99
2022-12-24T01:00:43.275Z,99.99
2022-12-24T01:01:43.443Z,99.99
2022-12-24T01:02:43.463Z,99.99
2022-12-24T01:03:43.361Z,99.99
2022-12-24T01:04:43.280Z,99.99
2022-12-24T01:05:43.403Z,99.99
2022-12-24T01:06:43.293Z,99.99
2022-12-24T01:07:43.303Z,99.99
2022-12-24T01:08:43.323Z,99.99
2022-12-24T01:09:43.315Z,99.99
2022-12-24T01:10:43.323Z,99.99
2022-12-24T01:11:43.331Z,99.99
2022-12-24T01:12:43.333Z,99.99
2022-12-24T01:13:43.345Z,99.99
2022-12-24T01:14:43.345Z,99.99
2022-12-24T01:15:43.423Z,99.99
2022-12-24T01:16:43.381Z,99.99
2022-12-24T01:17:43.371Z,99.99
2022-12-24T01:18:43.373Z,99.99
2022-12-24T01:19:43.392Z,99.99
2022-12-24T01:20:43.387Z,99.99
2022-12-24T01:21:43.399Z,99.99
2022-12-24T01:22:43.404Z,99.99
2022-12-24T01:23:43.424Z,99.99
2022-12-24T01:24:43.466Z,99.99
2022-12-24T01:25:43.428Z,99.99
2022-12-24T01:26:43.451Z,99.99
2022-12-24T01:27:43.450Z,99.99
2022-12-24T01:28:43.450Z,99.99
2022-12-24T01:29:43.469Z,99.99
2022-12-24T01:30:43.542Z,99.99
2022-12-24T01:31:43.580Z,99.99
2022-12-24T01:32:43.496Z,99.99
2022-12-24T01:33:43.482Z,99.99
2022-12-24T01:34:43.499Z,99.99
2022-12-24T01:35:43.498Z,99.99
2022-12-24T01:36:43.502Z,99.99
2022-12-24T01:37:43.518Z,99.99
2022-12-24T01:38:43.517Z,99.99
2022-12-24T01:39:43.560Z,99.99
2022-12-24T01:40:43.530Z,99.99
2022-12-24T01:41:43.553Z,99.99
2022-12-24T01:42:43.543Z,99.99
2022-12-24T01:43:43.555Z,99.99
2022-12-24T01:44:43.574Z,99.99
2022-12-24T01:45:43.639Z,99.99
2022-12-24T01:46:43.635Z,99.99
2022-12-24T01:47:43.589Z,99.99
2022-12-24T01:48:43.611Z,99.99
2022-12-24T01:49:43.608Z,99.99
2022-12-24T01:50:43.648Z,99.99
2022-12-24T01:51:43.611Z,99.99
2022-12-24T01:52:43.622Z,99.99
2022-12-24T01:53:43.628Z,99.99
2022-12-24T01:54:43.631Z,99.99
2022-12-24T01:55:43.643Z,99.99
2022-12-24T01:56:43.645Z,99.99
2022-12-24T01:57:43.658Z,99.99
2022-12-24T01:58:43.657Z,99.99
2022-12-24T01:59:43.669Z,99.99
2022-12-24T02:00:43.678Z,99.99
2022-12-24T02:01:43.789Z,99.99
2022-12-24T02:02:43.874Z,99.99
2022-12-24T02:03:43.742Z,99.99
2022-12-24T02:04:43.722Z,99.99
2022-12-24T02:05:43.713Z,99.99
2022-12-24T02:06:43.716Z,99.99
2022-12-24T02:07:43.735Z,99.99
2022-12-24T02:08:43.731Z,99.99
2022-12-24T02:09:43.742Z,99.99
2022-12-24T02:10:43.753Z,99.99
2022-12-24T02:11:43.766Z,99.99
2022-12-24T02:12:43.771Z,99.99
2022-12-24T02:13:43.817Z,99.99
2022-12-24T02:14:43.800Z,99.99
2022-12-24T02:15:43.815Z,99.99
2022-12-24T02:16:43.849Z,99.99
2022-12-24T02:17:43.795Z,99.99
2022-12-24T02:18:43.798Z,99.99
2022-12-24T02:19:43.813Z,99.99
2022-12-24T02:20:43.838Z,99.99
2022-12-24T02:21:43.829Z,99.99
2022-12-24T02:22:43.825Z,99.99
2022-12-24T02:23:43.838Z,99.99
2022-12-24T02:24:43.840Z,99.99
2022-12-24T02:25:43.853Z,99.99
2022-12-24T02:26:43.854Z,99.99
2022-12-24T02:27:43.862Z,99.99
2022-12-24T02:28:43.893Z,99.99
2022-12-24T02:29:43.878Z,99.99
2022-12-24T02:30:43.882Z,99.99
2022-12-24T02:31:43.956Z,99.99
2022-12-24T02:32:43.890Z,99.99
2022-12-24T02:33:43.903Z,99.99
2022-12-24T02:34:43.919Z,99.99
2022-12-24T02:35:43.921Z,99.99
2022-12-24T02:36:43.941Z,99.99
2022-12-24T02:37:43.933Z,99.99
2022-12-24T02:38:43.939Z,99.99
2022-12-24T02:39:43.946Z,99.99
2022-12-24T02:40:43.954Z,99.99
2022-12-24T02:41:43.960Z,99.99
2022-12-24T02:42:43.963Z,99.99
2022-12-24T02:43:43.978Z,99.99
2022-12-24T02:44:43.977Z,99.99
2022-12-24T02:45:43.997Z,99.99
2022-12-24T02:46:44.071Z,99.99
2022-12-24T02:47:44.000Z,99.99
2022-12-24T02:48:44.010Z,99.99
2022-12-24T02:49:44.020Z,99.99
2022-12-24T02:50:44.019Z,99.99
2022-12-24T02:51:44.031Z,99.99
2022-12-24T02:52:44.057Z,99.99
2022-12-24T02:53:44.055Z,99.99
2022-12-24T02:54:44.063Z,99.99
2022-12-24T02:55:44.059Z,99.99
2022-12-24T02:56:44.085Z,99.99
2022-12-24T02:57:44.067Z,99.99
2022-12-24T02:58:44.097Z,99.96
2022-12-24T02:59:44.089Z,99.77
2022-12-24T03:00:44.162Z,98.72
2022-12-24T03:01:44.287Z,97.30
2022-12-24T03:02:44.191Z,95.22
2022-12-24T03:03:44.110Z,94.56
2022-12-24T03:04:44.129Z,94.46
2022-12-24T03:05:44.129Z,93.99
2022-12-24T03:06:44.177Z,93.23
2022-12-24T03:07:44.165Z,93.70
2022-12-24T03:08:44.169Z,93.42
2022-12-24T03:09:44.156Z,93.32
2022-12-24T03:10:44.159Z,92.94
2022-12-24T03:11:44.168Z,92.76
2022-12-24T03:12:44.170Z,92.94
2022-12-24T03:13:44.174Z,93.23
2022-12-24T03:14:44.185Z,93.42
2022-12-24T03:15:44.197Z,93.32
2022-12-24T03:16:44.242Z,93.13
2022-12-24T03:17:44.215Z,93.51
2022-12-24T03:18:44.221Z,93.80
2022-12-24T03:19:44.217Z,93.80
2022-12-24T03:20:44.226Z,93.89
2022-12-24T03:21:44.229Z,93.99
2022-12-24T03:22:44.245Z,94.18
2022-12-24T03:23:44.243Z,94.74
2022-12-24T03:24:44.275Z,95.12
2022-12-24T03:25:44.258Z,95.31
2022-12-24T03:26:44.267Z,96.45
2022-12-24T03:27:44.271Z,96.45
2022-12-24T03:28:44.282Z,97.11
2022-12-24T03:29:44.303Z,97.30
2022-12-24T03:30:44.308Z,97.30
2022-12-24T03:31:44.436Z,97.97
2022-12-24T03:32:44.315Z,98.25
2022-12-24T03:33:44.314Z,98.44
2022-12-24T03:34:44.324Z,98.25
2022-12-24T03:35:44.341Z,99.99
2022-12-24T03:36:44.347Z,99.99
2022-12-24T03:37:44.338Z,99.99
2022-12-24T03:38:44.351Z,99.99
2022-12-24T03:39:44.368Z,99.99
2022-12-24T03:40:44.388Z,99.99
2022-12-24T03:41:44.386Z,99.99
2022-12-24T03:42:44.385Z,99.99
2022-12-24T03:43:44.387Z,99.99
2022-12-24T03:44:44.423Z,99.99
2022-12-24T03:45:44.460Z,99.99
2022-12-24T03:46:44.413Z,99.99
2022-12-24T03:47:44.421Z,99.99
2022-12-24T03:48:44.426Z,99.99
2022-12-24T03:49:44.433Z,99.99
2022-12-24T03:50:44.448Z,99.99
2022-12-24T03:51:44.444Z,99.99
2022-12-24T03:52:44.451Z,99.99
2022-12-24T03:53:44.458Z,99.99
2022-12-24T03:54:44.473Z,99.99
2022-12-24T03:55:44.472Z,99.99
2022-12-24T03:56:44.497Z,99.99
2022-12-24T03:57:44.480Z,99.99
2022-12-24T03:58:44.495Z,99.99
2022-12-24T03:59:44.504Z,99.99
2022-12-24T04:00:44.531Z,99.99
2022-12-24T04:01:44.685Z,99.99
2022-12-24T04:02:44.704Z,99.99
2022-12-24T04:03:44.529Z,99.99
2022-12-24T04:04:44.538Z,99.99
2022-12-24T04:05:44.536Z,99.99
2022-12-24T04:06:44.549Z,99.99
2022-12-24T04:07:44.551Z,99.99
2022-12-24T04:08:44.597Z,99.99
2022-12-24T04:09:44.563Z,99.99
2022-12-24T04:10:44.577Z,99.99
2022-12-24T04:11:44.590Z,99.99
2022-12-24T04:12:44.606Z,99.99
2022-12-24T04:13:44.589Z,99.99
2022-12-24T04:14:44.614Z,99.99
2022-12-24T04:15:44.604Z,99.99
2022-12-24T04:16:44.662Z,99.99
2022-12-24T04:17:44.632Z,99.99
2022-12-24T04:18:44.636Z,99.99
2022-12-24T04:19:44.631Z,99.99
2022-12-24T04:20:44.644Z,99.99
2022-12-24T04:21:44.646Z,99.99
2022-12-24T04:22:44.652Z,99.99
2022-12-24T04:23:44.685Z,99.99
2022-12-24T04:24:44.704Z,99.99
2022-12-24T04:25:44.685Z,99.99
2022-12-24T04:26:44.692Z,99.99
2022-12-24T04:27:44.701Z,99.99
2022-12-24T04:28:44.742Z,99.99
2022-12-24T04:29:44.704Z,99.99
2022-12-24T04:30:44.721Z,99.99
2022-12-24T04:31:44.766Z,99.99
2022-12-24T04:32:44.726Z,99.99
2022-12-24T04:33:44.734Z,99.99
2022-12-24T04:34:44.739Z,99.99
2022-12-24T04:35:44.744Z,99.99
2022-12-24T04:36:44.778Z,99.99
2022-12-24T04:37:44.785Z,99.99
2022-12-24T04:38:44.762Z,99.99
2022-12-24T04:39:44.792Z,99.99
2022-12-24T04:40:44.777Z,99.99
2022-12-24T04:41:44.781Z,99.99
2022-12-24T04:42:44.793Z,99.99
2022-12-24T04:43:44.797Z,99.99
2022-12-24T04:44:44.828Z,99.99
2022-12-24T04:45:44.875Z,99.99
2022-12-24T04:46:44.818Z,99.99
2022-12-24T04:47:44.834Z,99.99
2022-12-24T04:48:44.834Z,99.99
2022-12-24T04:49:44.837Z,99.99
2022-12-24T04:50:44.847Z,99.99
2022-12-24T04:51:44.868Z,99.99
2022-12-24T04:52:44.861Z,99.99
2022-12-24T04:53:44.870Z,99.99
2022-12-24T04:54:44.883Z,99.99
2022-12-24T04:55:44.926Z,99.99
2022-12-24T04:56:44.907Z,99.99
2022-12-24T04:57:48.449Z,99.99
2022-12-24T04:58:44.904Z,99.99
2022-12-24T04:59:44.907Z,99.99
2022-12-24T05:00:44.937Z,99.99
2022-12-24T05:01:45.038Z,99.99
2022-12-24T05:02:45.123Z,99.99
2022-12-24T05:03:44.940Z,99.99
2022-12-24T05:04:44.943Z,99.99
2022-12-24T05:05:44.946Z,99.99
2022-12-24T05:06:44.956Z,99.99
2022-12-24T05:07:44.958Z,99.99
2022-12-24T05:08:44.980Z,99.99
2022-12-24T05:09:45.025Z,99.99
2022-12-24T05:10:44.998Z,99.99
2022-12-24T05:11:44.985Z,99.99
2022-12-24T05:12:44.997Z,99.99
2022-12-24T05:13:47.653Z,99.99
2022-12-24T05:14:45.006Z,99.99
2022-12-24T05:15:45.019Z,99.99
2022-12-24T05:16:45.129Z,99.99
2022-12-24T05:17:45.033Z,99.99
2022-12-24T05:18:45.039Z,99.99
2022-12-24T05:19:45.036Z,99.99
2022-12-24T05:20:45.054Z,99.99
2022-12-24T05:21:45.051Z,99.99
2022-12-24T05:22:45.061Z,99.99
2022-12-24T05:23:45.073Z,99.99
2022-12-24T05:24:45.089Z,99.99
2022-12-24T05:25:45.086Z,99.99
2022-12-24T05:26:45.105Z,99.99
2022-12-24T05:27:50.875Z,99.99
2022-12-24T05:28:45.102Z,99.99
2022-12-24T05:29:45.104Z,99.99
2022-12-24T05:30:45.200Z,99.99
2022-12-24T05:31:45.281Z,99.99
2022-12-24T05:32:45.154Z,99.99
2022-12-24T05:33:45.154Z,99.99
2022-12-24T05:34:45.148Z,99.99
2022-12-24T05:35:45.164Z,99.99
2022-12-24T05:36:45.188Z,99.99
2022-12-24T05:37:45.159Z,99.99
2022-12-24T05:38:45.166Z,99.99
2022-12-24T05:39:45.192Z,99.99
2022-12-24T05:40:45.181Z,99.99
2022-12-24T05:41:45.235Z,99.99
2022-12-24T05:42:45.191Z,99.99
2022-12-24T05:43:45.199Z,99.99
2022-12-24T05:44:45.206Z,99.99
2022-12-24T05:45:45.264Z,99.99
2022-12-24T05:46:45.352Z,99.99
2022-12-24T05:47:45.230Z,99.99
2022-12-24T05:48:45.259Z,99.99
2022-12-24T05:49:45.241Z,99.99
2022-12-24T05:50:45.249Z,99.99
2022-12-24T05:51:45.257Z,99.99
2022-12-24T05:52:45.280Z,99.99
2022-12-24T05:53:45.271Z,99.99
2022-12-24T05:54:45.275Z,99.99
2022-12-24T05:55:45.276Z,99.99
2022-12-24T05:56:45.285Z,99.99
2022-12-24T05:57:45.290Z,99.99
2022-12-24T05:58:45.298Z,99.99
2022-12-24T05:59:45.308Z,99.99
2022-12-24T06:00:45.318Z,99.99
2022-12-24T06:01:45.379Z,99.99
2022-12-24T06:02:45.404Z,99.99
2022-12-24T06:03:45.344Z,99.99
2022-12-24T06:04:45.439Z,99.99
2022-12-24T06:05:45.340Z,99.99
2022-12-24T06:06:45.354Z,99.99
2022-12-24T06:07:45.352Z,99.99
2022-12-24T06:08:45.366Z,99.99
2022-12-24T06:09:45.365Z,99.99
2022-12-24T06:10:45.384Z,99.99
2022-12-24T06:11:45.413Z,99.99
2022-12-24T06:12:45.426Z,99.99
2022-12-24T06:13:45.400Z,99.99
2022-12-24T06:14:45.402Z,99.99
2022-12-24T06:15:45.473Z,99.99
2022-12-24T06:16:45.411Z,99.99
2022-12-24T06:17:45.436Z,99.99
2022-12-24T06:18:45.429Z,99.99
2022-12-24T06:19:45.429Z,99.99
2022-12-24T06:20:45.579Z,99.99
2022-12-24T06:21:45.445Z,99.99
2022-12-24T06:22:45.459Z,99.99
2022-12-24T06:23:45.460Z,99.99
2022-12-24T06:24:45.464Z,99.99
2022-12-24T06:25:45.567Z,99.99
2022-12-24T06:26:45.477Z,99.99
2022-12-24T06:27:45.482Z,99.99
2022-12-24T06:28:45.489Z,99.99
2022-12-24T06:29:45.500Z,99.99
2022-12-24T06:30:45.564Z,99.99
2022-12-24T06:31:45.583Z,99.99
2022-12-24T06:32:45.521Z,99.99
2022-12-24T06:33:45.554Z,99.99
2022-12-24T06:34:45.529Z,99.99
2022-12-24T06:35:45.533Z,99.99
2022-12-24T06:36:45.567Z,99.99
2022-12-24T06:37:45.555Z,99.99
2022-12-24T06:38:45.591Z,99.99
2022-12-24T06:39:45.564Z,99.99
2022-12-24T06:40:45.570Z,99.99
2022-12-24T06:41:45.580Z,99.99
2022-12-24T06:42:45.588Z,99.99
2022-12-24T06:43:45.592Z,99.99
2022-12-24T06:44:45.597Z,99.99
2022-12-24T06:45:45.612Z,99.99
2022-12-24T06:46:45.689Z,99.99
2022-12-24T06:47:45.634Z,99.99
2022-12-24T06:48:45.657Z,99.99
2022-12-24T06:49:45.628Z,99.99
2022-12-24T06:50:45.635Z,99.99
2022-12-24T06:51:45.640Z,99.99
2022-12-24T06:52:45.669Z,99.99
2022-12-24T06:53:45.657Z,99.99
2022-12-24T06:54:45.670Z,99.99
2022-12-24T06:55:45.671Z,99.99
2022-12-24T06:56:45.687Z,99.99
2022-12-24T06:57:45.686Z,99.99
2022-12-24T06:58:45.696Z,99.99
2022-12-24T06:59:45.697Z,99.99
2022-12-24T07:00:45.705Z,99.99
2022-12-24T07:01:45.823Z,99.99
2022-12-24T07:02:45.776Z,99.99
2022-12-24T07:03:45.768Z,99.99
2022-12-24T07:04:45.729Z,99.99
2022-12-24T07:05:45.756Z,99.99
2022-12-24T07:06:45.744Z,99.99
2022-12-24T07:07:45.771Z,99.99
2022-12-24T07:08:45.788Z,99.99
2022-12-24T07:09:45.765Z,99.99
2022-12-24T07:10:52.184Z,99.99
2022-12-24T07:11:45.797Z,99.99
2022-12-24T07:12:45.797Z,99.99
2022-12-24T07:13:45.801Z,99.99
2022-12-24T07:14:45.796Z,99.99
2022-12-24T07:15:45.862Z,99.99
2022-12-24T07:16:46.002Z,99.99
2022-12-24T07:17:45.896Z,99.99
2022-12-24T07:18:45.823Z,99.99
2022-12-24T07:19:45.853Z,99.99
2022-12-24T07:20:45.838Z,99.99
2022-12-24T07:21:45.845Z,99.99
2022-12-24T07:22:45.855Z,99.99
2022-12-24T07:23:45.863Z,99.99
2022-12-24T07:24:46.099Z,99.99
2022-12-24T07:25:45.905Z,99.99
2022-12-24T07:26:45.880Z,99.99
2022-12-24T07:27:45.902Z,99.99
2022-12-24T07:28:45.899Z,99.99
2022-12-24T07:29:45.908Z,99.99
2022-12-24T07:30:45.905Z,99.99
2022-12-24T07:31:46.046Z,99.99
2022-12-24T07:32:45.925Z,99.99
2022-12-24T07:33:45.931Z,99.99
2022-12-24T07:34:45.934Z,99.99
2022-12-24T07:35:48.496Z,99.99
2022-12-24T07:36:45.947Z,99.99
2022-12-24T07:37:45.960Z,99.99
2022-12-24T07:38:45.964Z,99.99
2022-12-24T07:39:45.979Z,99.99
2022-12-24T07:40:45.991Z,99.99
2022-12-24T07:41:45.989Z,99.99
2022-12-24T07:42:45.992Z,99.99
2022-12-24T07:43:46.007Z,99.99
2022-12-24T07:44:46.004Z,99.99
2022-12-24T07:45:46.020Z,99.99
2022-12-24T07:46:46.045Z,99.99
2022-12-24T07:47:46.052Z,99.99
2022-12-24T07:48:46.053Z,99.99
2022-12-24T07:49:46.043Z,99.99
2022-12-24T07:50:46.047Z,99.99
2022-12-24T07:51:46.055Z,99.99
2022-12-24T07:52:46.060Z,99.99
2022-12-24T07:53:46.069Z,99.99
2022-12-24T07:54:46.078Z,99.99
2022-12-24T07:55:46.081Z,99.99
2022-12-24T07:56:46.126Z,99.99
2022-12-24T07:57:46.100Z,99.99
2022-12-24T07:58:46.137Z,99.99
2022-12-24T07:59:46.109Z,99.99
2022-12-24T08:00:46.125Z,99.99
2022-12-24T08:01:46.429Z,99.99
2022-12-24T08:02:46.352Z,99.99
2022-12-24T08:03:46.349Z,99.99
2022-12-24T08:04:46.141Z,99.99
2022-12-24T08:05:46.253Z,99.99
2022-12-24T08:06:46.160Z,99.99
2022-12-24T08:07:46.169Z,99.99
2022-12-24T08:08:46.175Z,99.99
2022-12-24T08:09:46.266Z,99.99
2022-12-24T08:10:46.187Z,99.99
2022-12-24T08:11:51.686Z,99.99
2022-12-24T08:12:46.222Z,99.99
2022-12-24T08:13:46.222Z,99.99
2022-12-24T08:14:46.236Z,99.99
2022-12-24T08:15:46.228Z,99.99
2022-12-24T08:16:46.418Z,99.99
2022-12-24T08:17:46.245Z,99.99
2022-12-24T08:18:46.244Z,99.99
2022-12-24T08:19:46.254Z,99.99
2022-12-24T08:20:46.263Z,99.99
2022-12-24T08:21:46.269Z,99.99
2022-12-24T08:22:46.291Z,99.99
2022-12-24T08:23:46.293Z,99.99
2022-12-24T08:24:46.288Z,99.99
2022-12-24T08:25:46.304Z,99.99
2022-12-24T08:26:46.405Z,99.99
2022-12-24T08:27:46.311Z,99.99
2022-12-24T08:28:46.360Z,99.99
2022-12-24T08:29:46.336Z,99.99
2022-12-24T08:30:46.325Z,99.99
2022-12-24T08:31:46.412Z,99.99
2022-12-24T08:32:46.346Z,99.99
2022-12-24T08:33:46.381Z,99.99
2022-12-24T08:34:46.359Z,99.99
2022-12-24T08:35:46.385Z,99.99
2022-12-24T08:36:46.377Z,99.99
2022-12-24T08:37:46.393Z,99.99
2022-12-24T08:38:46.387Z,99.99
2022-12-24T08:39:46.392Z,99.99
2022-12-24T08:40:46.399Z,99.99
2022-12-24T08:41:46.411Z,99.99
2022-12-24T08:42:46.551Z,99.99
2022-12-24T08:43:46.417Z,99.99
2022-12-24T08:44:46.446Z,99.99
2022-12-24T08:45:46.605Z,99.99
2022-12-24T08:46:46.438Z,99.99
2022-12-24T08:47:46.447Z,99.99
2022-12-24T08:48:46.450Z,99.99
2022-12-24T08:49:46.460Z,99.99
2022-12-24T08:50:46.470Z,99.99
2022-12-24T08:51:46.483Z,99.99
2022-12-24T08:52:46.480Z,99.99
2022-12-24T08:53:46.505Z,99.99
2022-12-24T08:54:46.567Z,99.99
2022-12-24T08:55:51.947Z,99.99
2022-12-24T08:56:46.508Z,99.99
2022-12-24T08:57:46.517Z,99.99
2022-12-24T08:58:46.519Z,99.99
2022-12-24T08:59:46.534Z,99.99
2022-12-24T09:00:46.616Z,99.99
2022-12-24T09:01:46.779Z,99.99
2022-12-24T09:02:46.683Z,99.99
2022-12-24T09:03:46.700Z,99.99
2022-12-24T09:04:46.571Z,99.99
2022-12-24T09:05:46.577Z,99.99
2022-12-24T09:06:46.576Z,99.99
2022-12-24T09:07:46.588Z,99.99
2022-12-24T09:08:46.606Z,99.99
2022-12-24T09:09:46.607Z,99.99
2022-12-24T09:10:46.607Z,99.99
2022-12-24T09:11:46.632Z,99.99
2022-12-24T09:12:46.625Z,99.99
2022-12-24T09:13:46.639Z,99.99
2022-12-24T09:14:46.650Z,99.99
2022-12-24T09:15:46.649Z,99.99
2022-12-24T09:16:46.783Z,99.99
2022-12-24T09:17:46.664Z,99.99
2022-12-24T09:18:46.665Z,99.99
2022-12-24T09:19:46.676Z,99.99
2022-12-24T09:20:47.327Z,99.99
2022-12-24T09:21:46.695Z,99.99
2022-12-24T09:22:46.707Z,99.99
2022-12-24T09:23:46.708Z,99.99
2022-12-24T09:24:46.719Z,99.99
2022-12-24T09:25:46.723Z,99.99
2022-12-24T09:26:50.028Z,99.99
2022-12-24T09:27:46.746Z,99.99
2022-12-24T09:28:46.744Z,99.99
2022-12-24T09:29:46.755Z,99.99
2022-12-24T09:30:46.756Z,99.99
2022-12-24T09:31:46.825Z,99.99
2022-12-24T09:32:46.793Z,99.99
2022-12-24T09:33:46.802Z,99.99
2022-12-24T09:34:46.784Z,99.99
2022-12-24T09:35:46.808Z,99.99
2022-12-24T09:36:46.800Z,99.99
2022-12-24T09:37:46.819Z,99.99
2022-12-24T09:38:46.827Z,99.99
2022-12-24T09:39:46.838Z,99.99
2022-12-24T09:40:46.831Z,99.99
2022-12-24T09:41:46.841Z,99.99
2022-12-24T09:42:46.853Z,99.99
2022-12-24T09:43:46.857Z,99.99
2022-12-24T09:44:46.860Z,99.99
2022-12-24T09:45:46.949Z,99.99
2022-12-24T09:46:46.874Z,99.99
2022-12-24T09:47:46.905Z,99.99
2022-12-24T09:48:46.910Z,99.99
2022-12-24T09:49:46.905Z,99.99
2022-12-24T09:50:46.917Z,99.99
2022-12-24T09:51:46.933Z,99.99
2022-12-24T09:52:46.921Z,99.99
2022-12-24T09:53:46.955Z,99.99
2022-12-24T09:54:49.821Z,99.99
2022-12-24T09:55:46.960Z,99.99
2022-12-24T09:56:46.951Z,99.99
2022-12-24T09:57:46.963Z,99.99
2022-12-24T09:58:46.967Z,99.99
2022-12-24T09:59:46.992Z,99.99
2022-12-24T10:00:50.012Z,99.99
2022-12-24T10:01:47.091Z,99.99
2022-12-24T10:02:47.299Z,99.99
2022-12-24T10:03:47.163Z,99.99
2022-12-24T10:04:47.034Z,99.99
2022-12-24T10:05:47.025Z,99.99
2022-12-24T10:06:47.031Z,99.99
2022-12-24T10:07:47.045Z,99.99
2022-12-24T10:08:47.049Z,99.99
2022-12-24T10:09:47.058Z,99.99
2022-12-24T10:10:47.074Z,99.99
2022-12-24T10:11:47.073Z,99.99
2022-12-24T10:12:49.727Z,99.99
2022-12-24T10:13:47.089Z,99.99
2022-12-24T10:14:47.089Z,99.99
2022-12-24T10:15:47.126Z,99.99
2022-12-24T10:16:47.211Z,99.99
2022-12-24T10:17:47.125Z,99.99
2022-12-24T10:18:49.441Z,99.99
2022-12-24T10:19:47.132Z,99.99
2022-12-24T10:20:47.157Z,99.99
2022-12-24T10:21:47.149Z,99.99
2022-12-24T10:22:47.161Z,99.99
2022-12-24T10:23:47.164Z,99.99
2022-12-24T10:24:50.626Z,99.99
2022-12-24T10:25:47.180Z,99.99
2022-12-24T10:26:47.183Z,99.99
2022-12-24T10:27:47.199Z,99.99
2022-12-24T10:28:47.207Z,99.99
2022-12-24T10:29:47.213Z,99.99
2022-12-24T10:30:47.244Z,99.99
2022-12-24T10:31:47.225Z,99.99
2022-12-24T10:32:47.231Z,99.99
2022-12-24T10:33:47.244Z,99.99
2022-12-24T10:34:47.244Z,99.99
2022-12-24T10:35:47.263Z,99.99
2022-12-24T10:36:47.282Z,99.99
2022-12-24T10:37:47.289Z,99.99
2022-12-24T10:38:47.277Z,99.99
2022-12-24T10:39:47.289Z,99.99
2022-12-24T10:40:47.357Z,99.99
2022-12-24T10:41:47.343Z,99.99
2022-12-24T10:42:51.272Z,99.99
2022-12-24T10:43:47.319Z,99.99
2022-12-24T10:44:47.331Z,99.99
2022-12-24T10:45:47.446Z,99.99
2022-12-24T10:46:47.372Z,99.99
2022-12-24T10:47:47.353Z,99.99
2022-12-24T10:48:50.757Z,99.99
2022-12-24T10:49:47.375Z,99.99
2022-12-24T10:50:47.378Z,99.99
2022-12-24T10:51:47.389Z,99.99
2022-12-24T10:52:47.407Z,99.99
2022-12-24T10:53:47.397Z,99.99
2022-12-24T10:54:47.405Z,99.99
2022-12-24T10:55:47.413Z,99.99
2022-12-24T10:56:47.426Z,99.99
2022-12-24T10:57:47.433Z,99.99
2022-12-24T10:58:47.437Z,99.99
2022-12-24T10:59:47.447Z,99.99
2022-12-24T11:00:47.453Z,99.99
2022-12-24T11:01:47.662Z,99.99
2022-12-24T11:02:47.701Z,99.99
2022-12-24T11:03:47.563Z,99.99
2022-12-24T11:04:47.487Z,99.99
2022-12-24T11:05:47.519Z,99.99
2022-12-24T11:06:49.263Z,99.99
2022-12-24T11:07:47.524Z,99.99
2022-12-24T11:08:47.535Z,99.99
2022-12-24T11:09:47.529Z,99.99
2022-12-24T11:10:47.539Z,99.99
2022-12-24T11:11:47.569Z,99.99
2022-12-24T11:13:05.929Z,99.99
2022-12-24T11:13:47.561Z,99.99
2022-12-24T11:14:47.566Z,99.99
2022-12-24T11:15:47.629Z,99.99
2022-12-24T11:16:47.582Z,99.99
2022-12-24T11:17:47.593Z,99.99
2022-12-24T11:18:51.087Z,99.99
2022-12-24T11:19:47.625Z,99.99
2022-12-24T11:20:47.619Z,99.99
2022-12-24T11:21:47.634Z,99.99
2022-12-24T11:22:47.634Z,99.99
2022-12-24T11:23:47.636Z,99.99
2022-12-24T11:24:50.235Z,99.99
2022-12-24T11:25:47.675Z,99.99
2022-12-24T11:26:47.674Z,99.99
2022-12-24T11:27:47.668Z,99.99
2022-12-24T11:28:47.681Z,99.99
2022-12-24T11:29:47.786Z,99.99
2022-12-24T11:30:47.722Z,99.99
2022-12-24T11:31:47.729Z,99.99
2022-12-24T11:32:47.711Z,99.99
2022-12-24T11:33:47.744Z,99.99
2022-12-24T11:34:47.747Z,99.99
2022-12-24T11:35:47.738Z,99.99
2022-12-24T11:36:47.756Z,99.99
2022-12-24T11:37:47.752Z,99.99
2022-12-24T11:38:47.778Z,99.99
2022-12-24T11:39:47.780Z,99.99
2022-12-24T11:40:47.798Z,99.99
2022-12-24T11:41:47.787Z,99.99
2022-12-24T11:42:47.797Z,99.99
2022-12-24T11:43:47.804Z,99.99
2022-12-24T11:44:47.819Z,99.99
2022-12-24T11:45:47.820Z,99.99
2022-12-24T11:46:47.896Z,99.99
2022-12-24T11:47:47.833Z,99.99
2022-12-24T11:48:47.848Z,99.99
2022-12-24T11:49:47.852Z,99.99
2022-12-24T11:50:47.867Z,99.99
2022-12-24T11:51:47.871Z,99.99
2022-12-24T11:52:47.875Z,99.99
2022-12-24T11:53:47.890Z,99.99
2022-12-24T11:54:47.898Z,99.99
2022-12-24T11:55:47.899Z,99.99
2022-12-24T11:56:47.929Z,99.99
2022-12-24T11:57:47.915Z,99.99
2022-12-24T11:58:47.932Z,99.99
2022-12-24T11:59:47.933Z,99.99
2022-12-24T12:00:47.948Z,99.99
2022-12-24T12:01:48.003Z,99.99
2022-12-24T12:02:48.024Z,99.99
2022-12-24T12:03:48.124Z,99.99
2022-12-24T12:04:47.984Z,99.99
2022-12-24T12:05:47.985Z,99.99
2022-12-24T12:06:48.017Z,99.99
2022-12-24T12:07:48.003Z,99.99
2022-12-24T12:08:48.019Z,99.99
2022-12-24T12:09:48.020Z,99.99
2022-12-24T12:10:48.031Z,99.99
2022-12-24T12:11:48.044Z,99.99
2022-12-24T12:12:48.079Z,99.99
2022-12-24T12:13:48.059Z,99.99
2022-12-24T12:14:48.068Z,99.99
2022-12-24T12:15:48.107Z,99.99
2022-12-24T12:16:48.083Z,99.99
2022-12-24T12:17:48.093Z,99.99
2022-12-24T12:18:48.116Z,99.99
2022-12-24T12:19:48.107Z,99.99
2022-12-24T12:20:48.122Z,99.99
2022-12-24T12:21:48.126Z,99.99
2022-12-24T12:22:48.138Z,99.99
2022-12-24T12:23:48.146Z,99.99
2022-12-24T12:24:48.156Z,99.99
2022-12-24T12:25:48.182Z,99.99
2022-12-24T12:26:48.171Z,99.99
2022-12-24T12:27:48.217Z,99.99
2022-12-24T12:28:48.211Z,99.99
2022-12-24T12:29:48.197Z,99.99
2022-12-24T12:30:48.212Z,99.99
2022-12-24T12:31:48.285Z,99.99
2022-12-24T12:32:48.278Z,99.99
2022-12-24T12:33:48.234Z,99.99
2022-12-24T12:34:48.244Z,99.99
2022-12-24T12:35:48.251Z,99.99
2022-12-24T12:36:48.363Z,99.99
2022-12-24T12:37:48.272Z,99.99
2022-12-24T12:38:48.281Z,99.99
2022-12-24T12:39:48.290Z,99.99
2022-12-24T12:40:48.300Z,99.99
2022-12-24T12:41:48.308Z,99.99
2022-12-24T12:42:48.338Z,99.99
2022-12-24T12:43:48.326Z,99.99
2022-12-24T12:44:48.361Z,99.99
2022-12-24T12:45:48.347Z,99.99
2022-12-24T12:46:48.365Z,99.99
2022-12-24T12:47:48.360Z,99.99
2022-12-24T12:48:48.378Z,99.99
2022-12-24T12:49:48.383Z,99.99
2022-12-24T12:50:48.392Z,99.99
2022-12-24T12:51:48.399Z,99.99
2022-12-24T12:52:48.410Z,99.99